• Join FlightAware (Why Join?)
  • Login
  • US Flag 
02:42AM EDT


 

Airport Tracker/Info


-or-


 

Live Flight TrackerFlight Track Log ✈ N910WW ✈ 21-Jun-2013 ✈ KORF - KSOP

Flight Track Log - Related Links

Times and Time Zones

All times are in EDT time to prevent confusion due to time zone crossing. See the N910WW flight status page for this flight to view local times or setup timezone preferences in your user account.

Time Position Orientation Groundspeed Altitude Reporting Facility
EDT Latitude Longitude Course Direction KTS MPH feet Rate Location/Type
03:26PM 36.8992 -76.1997 39° Northeast 119 137 500  Level Washington Center
03:27PM 36.9244 -76.1739 39° Northeast 135 155 1,600 1,140 Climbing Washington Center
03:28PM 36.9600 -76.1456 32° Northeast 135 155 2,800 1,080 Climbing Washington Center
03:29PM 36.9933 -76.1511 352° North 157 181 3,800 1,020 Climbing Washington Center
03:30PM 36.9806 -76.1925 249° West 139 160 4,900 960 Climbing Washington Center
03:31PM 36.9722 -76.2417 258° West 150 173 5,700 780 Climbing Washington Center
03:32PM 36.9633 -76.2964 259° West 150 173 6,500 780 Climbing Washington Center
03:33PM 36.9506 -76.3456 252° West 150 173 7,300 720 Climbing Washington Center
03:34PM 36.9400 -76.3975 256° West 159 183 8,000 480 Climbing Washington Center
03:35PM 36.9292 -76.4233 242° Southwest 176 203 8,100 60 Climbing Washington Center
03:36PM 36.9058 -76.4828 244° Southwest 194 223 8,100  Level Washington Center
03:37PM 36.8825 -76.5500 247° West 202 232 8,100  Level Washington Center
03:38PM 36.8569 -76.6172 245° Southwest 203 234 8,100  Level Washington Center
03:39PM 36.8269 -76.7000 246° West 210 242 8,100  Level Washington Center
03:40PM 36.8053 -76.7669 248° West 210 242 8,100  Level Washington Center
03:41PM 36.7797 -76.8289 243° Southwest 210 242 8,100  Level Washington Center
03:42PM 36.7561 -76.8958 246° West 210 242 8,100  Level Washington Center
03:43PM 36.7283 -76.9550 240° Southwest 210 242 8,100  Level Washington Center
03:44PM 36.6881 -77.0036 224° Southwest 210 242 8,100  Level Washington Center
03:45PM 36.6622 -77.0653 242° Southwest 205 236 8,100  Level Washington Center
03:46PM 36.6261 -77.1189 230° Southwest 205 236 8,100  Level Washington Center
03:47PM 36.5942 -77.1753 235° Southwest 205 236 8,100  Level Washington Center
03:48PM 36.5581 -77.2261 229° Southwest 205 236 8,100  Level Washington Center
03:49PM 36.5158 -77.2564 210° Southwest 200 230 8,100  Level Washington Center
03:50PM 36.4817 -77.3125 233° Southwest 200 230 8,100  Level Washington Center
03:51PM 36.4497 -77.3658 233° Southwest 205 236 8,100  Level Washington Center
03:52PM 36.4175 -77.4244 236° Southwest 205 236 8,100  Level Washington Center
03:53PM 36.3811 -77.4856 234° Southwest 205 236 8,100 180 Level Washington Center
03:54PM 36.3511 -77.5392 235° Southwest 205 236 8,500 540 Climbing Washington Center
03:55PM 36.3208 -77.5897 233° Southwest 199 229 9,200 600 Climbing Washington Center
03:56PM 36.2931 -77.6331 232° Southwest 180 207 9,800 420 Climbing Washington Center
03:57PM 36.2672 -77.6814 236° Southwest 173 199 10,100 120 Climbing Washington Center
03:58PM 36.2350 -77.7319 232° Southwest 179 206 10,100  Level Washington Center
03:59PM 36.2028 -77.7878 234° Southwest 190 219 10,100  Level Washington Center
04:00PM 36.1725 -77.8433 236° Southwest 190 219 10,100  Level Washington Center
04:01PM 36.1400 -77.8992 234° Southwest 195 224 10,100  Level Washington Center
04:02PM 36.1078 -77.9522 233° Southwest 195 224 10,100  Level Washington Center
04:03PM 36.0842 -77.9822 226° Southwest 197 227 10,100  Level Washington Center
04:04PM 36.0494 -78.0506 238° Southwest 194 223 10,100  Level Washington Center
04:05PM 36.0106 -78.1111 232° Southwest 196 226 10,100  Level Washington Center
04:06PM 35.9781 -78.1689 235° Southwest 201 231 10,100  Level Washington Center
04:06PM 35.9781 -78.1689 235° Southwest 197 227 10,100  Level Washington Center
04:07PM 35.9478 -78.2167 232° Southwest 201 231 10,100  Level Washington Center
04:08PM 35.9131 -78.2797 236° Southwest 201 231 10,100  Level Washington Center
04:09PM 35.8828 -78.3247 230° Southwest 201 231 10,100  Level Washington Center
04:10PM 35.8481 -78.3800 232° Southwest 198 228 10,100  Level Washington Center
04:11PM 35.8156 -78.4403 236° Southwest 201 231 10,100  Level Washington Center
04:12PM 35.7828 -78.4931 233° Southwest 201 231 10,100  Level Washington Center
04:13PM 35.7439 -78.5556 233° Southwest 194 223 10,100  Level Washington Center
04:14PM 35.7242 -78.5906 235° Southwest 193 222 10,100 -120 Level Washington Center
04:15PM 35.6981 -78.6331 233° Southwest 195 224 10,000 -540 Descending Washington Center
04:16PM 35.6544 -78.7056 234° Southwest 213 245 9,100 -780 Descending Washington Center
04:18PM 35.6129 -78.7776 235° Southwest  Level FlightAware Approximate
04:25PM 35.4153 -79.1021 232° Southwest  Level FlightAware Approximate
04:26PM 35.3861 -79.1477 232° Southwest  Level FlightAware Approximate
04:27PM 35.3568 -79.1933 232° Southwest  Level FlightAware Approximate
04:28PM 35.3275 -79.2388 232° Southwest  Level FlightAware Approximate
04:29PM 35.2982 -79.2844 232° Southwest  Level FlightAware Approximate